Time;durP1;ratioP1;P1;durP2;ratioP2;P2;SDS_P1;SDS_P2;PMS_P1;PMS_P2;Temp;Humidity;BMP_temperature;BMP_pressure;BME280_temperature;BME280_humidity;BME280_pressure;Samples;Min_cycle;Max_cycle;Signal;HPM_P1;HPM_P2
2021/08/30 00:00:15;;;;;;;31.80;22.70;;;16.00;99.90;;;17.56;100.00;100782.25;6138232;23;20016;-88
2021/08/30 00:02:42;;;;;;;35.63;20.98;;;16.00;99.90;;;17.52;100.00;100785.03;6140094;23;20010;-90
2021/08/30 00:05:09;;;;;;;29.90;20.58;;;16.00;99.90;;;17.53;100.00;100785.84;6115611;23;20028;-90
2021/08/30 00:07:35;;;;;;;35.38;21.27;;;16.00;99.90;;;17.54;100.00;100784.59;6117958;23;20006;-88
2021/08/30 00:10:03;;;;;;;32.95;22.00;;;16.00;99.90;;;17.51;100.00;100788.25;6115138;23;20076;-91
2021/08/30 00:12:29;;;;;;;29.15;21.45;;;16.00;99.90;;;17.50;100.00;100783.81;6112076;23;20006;-89
2021/08/30 00:14:55;;;;;;;31.92;20.95;;;16.00;99.90;;;17.50;100.00;100787.41;6111639;23;20040;-90
2021/08/30 00:17:22;;;;;;;33.38;21.75;;;15.90;99.90;;;17.48;100.00;100787.03;6115082;23;20044;-91
2021/08/30 00:19:48;;;;;;;32.05;22.80;;;16.00;99.90;;;17.46;100.00;100783.81;6112394;23;20010;-90
2021/08/30 00:22:13;;;;;;;33.78;21.48;;;16.00;99.90;;;17.45;100.00;100789.84;6141051;23;20013;-91
2021/08/30 00:24:45;;;;;;;33.85;22.17;;;15.90;99.90;;;17.45;100.00;100785.00;6166469;23;20006;-92
2021/08/30 00:27:11;;;;;;;30.27;19.92;;;16.00;99.90;;;17.45;100.00;100792.66;6139177;23;20012;-90
2021/08/30 00:29:37;;;;;;;35.53;21.77;;;15.90;99.90;;;17.45;100.00;100787.84;6144661;23;20009;-89
2021/08/30 00:32:05;;;;;;;32.72;22.05;;;15.90;99.90;;;17.45;100.00;100796.31;6148572;23;20005;-88
2021/08/30 00:34:31;;;;;;;31.02;21.13;;;15.90;99.90;;;17.42;100.00;100788.63;6152833;23;20009;-89
2021/08/30 00:36:57;;;;;;;36.30;22.38;;;15.90;99.90;;;17.39;100.00;100789.44;6151780;23;20102;-90
2021/08/30 00:39:24;;;;;;;34.80;22.90;;;15.90;99.90;;;17.36;100.00;100793.06;6138251;23;20012;-91
2021/08/30 00:41:56;;;;;;;37.33;23.67;;;15.90;99.90;;;17.35;100.00;100791.44;6160511;23;20036;-89
2021/08/30 00:44:24;;;;;;;33.15;22.00;;;15.80;99.90;;;17.38;100.00;100790.66;6168085;23;20009;-90
2021/08/30 00:46:52;;;;;;;34.10;21.50;;;15.90;99.90;;;17.35;100.00;100795.09;6139942;23;19990;-86
2021/08/30 00:49:18;;;;;;;31.05;20.50;;;15.80;99.90;;;17.35;100.00;100782.97;6169914;23;20016;-89
2021/08/30 00:51:44;;;;;;;30.58;21.73;;;15.80;99.90;;;17.34;100.00;100787.81;6164397;23;20005;-89
2021/08/30 00:54:11;;;;;;;36.38;21.55;;;15.80;99.90;;;17.30;100.00;100784.19;6138090;23;20018;-88
2021/08/30 00:56:38;;;;;;;35.83;22.10;;;15.80;99.90;;;17.28;100.00;100792.25;6138644;23;20013;-91
2021/08/30 00:59:04;;;;;;;29.60;19.45;;;15.80;99.90;;;17.30;100.00;100789.03;6139229;23;20037;-90
2021/08/30 01:01:30;;;;;;;27.15;19.85;;;15.80;99.90;;;17.28;100.00;100786.59;6165082;23;20009;-91
2021/08/30 01:03:56;;;;;;;33.63;21.88;;;15.80;99.90;;;17.30;100.00;100786.19;6140394;23;20073;-87
2021/08/30 01:06:46;;;;;;;27.92;19.85;;;15.80;99.90;;;17.27;100.00;100793.44;6165396;23;20010;-90
2021/08/30 01:09:40;;;;;;;37.25;21.40;;;15.70;99.90;;;17.26;100.00;100791.03;6145013;23;20009;-87
2021/08/30 01:12:16;;;;;;;36.83;21.75;;;15.70;99.90;;;17.30;100.00;100801.13;6145495;23;20049;-89
2021/08/30 01:14:56;;;;;;;29.15;20.02;;;15.70;99.90;;;17.26;100.00;100802.31;6143387;23;20013;-89
2021/08/30 01:17:25;;;;;;;31.00;20.17;;;15.70;99.90;;;17.24;100.00;100796.28;6141601;23;20021;-88
2021/08/30 01:20:14;;;;;;;27.60;20.17;;;15.70;99.90;;;17.24;100.00;100791.41;6142014;23;20009;-90
2021/08/30 01:22:47;;;;;;;34.05;21.85;;;15.70;99.90;;;17.21;100.00;100806.31;6164575;23;20013;-89
2021/08/30 01:25:20;;;;;;;32.47;21.05;;;15.70;99.90;;;17.19;100.00;100802.28;6137769;23;20108;-90
2021/08/30 01:27:52;;;;;;;29.42;18.83;;;15.70;99.90;;;17.17;100.00;100804.72;6138321;23;20041;-88
2021/08/30 01:30:23;;;;;;;27.80;18.83;;;15.70;99.90;;;17.18;100.00;100803.50;6136306;23;19998;-87
2021/08/30 01:33:00;;;;;;;33.70;18.77;;;15.60;99.90;;;17.18;100.00;100807.13;6136986;23;20005;-89
2021/08/30 01:35:30;;;;;;;31.65;21.05;;;15.70;99.90;;;17.18;100.00;100807.13;6161490;23;20503;-87
2021/08/30 01:38:02;;;;;;;25.38;18.30;;;15.60;99.90;;;17.18;100.00;100807.13;6138108;23;20443;-88
2021/08/30 01:40:31;;;;;;;31.90;20.75;;;15.70;99.90;;;17.17;100.00;100807.53;6150576;23;20037;-88
2021/08/30 01:43:00;;;;;;;31.75;18.60;;;15.60;99.90;;;17.16;100.00;100812.38;6141854;23;20040;-89
2021/08/30 01:45:31;;;;;;;30.95;19.25;;;15.60;99.90;;;17.13;100.00;100804.72;6134993;23;20006;-91
2021/08/30 01:48:04;;;;;;;28.10;18.70;;;15.60;99.90;;;17.13;100.00;100801.88;6135928;23;20009;-89
2021/08/30 01:50:32;;;;;;;30.92;18.98;;;15.60;99.90;;;17.16;100.00;100797.44;6135630;23;20029;-90
2021/08/30 01:53:04;;;;;;;31.77;19.70;;;15.60;99.90;;;17.16;100.00;100803.91;6159614;23;20060;-92
2021/08/30 02:00:43;;;;;;;31.13;19.98;;;15.60;99.90;;;17.05;100.00;100803.06;6171524;23;20323;-90
2021/08/30 02:03:31;;;;;;;30.63;18.95;;;15.50;99.90;;;17.08;100.00;100802.25;6133392;23;20006;-91
2021/08/30 02:06:05;;;;;;;37.92;21.70;;;15.50;99.90;;;17.04;100.00;100807.09;6136653;23;20056;-90
2021/08/30 02:08:34;;;;;;;31.35;20.73;;;15.50;99.90;;;17.05;100.00;100805.88;6135874;23;20088;-89
2021/08/30 02:11:10;;;;;;;32.58;20.58;;;15.50;99.90;;;17.04;100.00;100814.75;6136121;23;20005;-89
2021/08/30 02:13:36;;;;;;;30.98;20.77;;;15.50;99.90;;;17.02;100.00;100809.50;6136937;23;20091;-91
2021/08/30 02:16:04;;;;;;;30.13;19.95;;;15.50;99.90;;;17.02;100.00;100808.69;6136668;23;20017;-90
2021/08/30 02:19:05;;;;;;;30.92;20.13;;;15.50;99.90;;;17.00;100.00;100803.47;6136678;23;20417;-89
2021/08/30 02:21:57;;;;;;;33.45;19.65;;;15.50;99.90;;;16.94;100.00;100807.06;6136105;23;20023;-90
2021/08/30 02:24:46;;;;;;;26.23;19.13;;;15.40;99.90;;;16.94;100.00;100807.06;6134585;23;20064;-88
2021/08/30 02:27:29;;;;;;;27.75;19.92;;;15.40;99.90;;;16.91;100.00;100810.69;6135364;23;20036;-90
2021/08/30 02:30:12;;;;;;;30.52;20.65;;;15.40;99.90;;;16.85;100.00;100810.25;6135994;23;20017;-88
2021/08/30 02:32:43;;;;;;;29.70;19.63;;;15.40;99.90;;;16.88;100.00;100811.47;6136627;23;20088;-90
2021/08/30 02:35:17;;;;;;;32.25;19.90;;;15.40;99.90;;;16.87;100.00;100810.66;6160561;23;20013;-91
2021/08/30 02:37:44;;;;;;;30.67;19.90;;;15.30;99.90;;;16.87;100.00;100802.19;6161912;23;20404;-92
2021/08/30 02:40:15;;;;;;;29.00;18.65;;;15.40;99.90;;;16.87;100.00;100805.03;6162072;23;20435;-91
2021/08/30 02:42:42;;;;;;;29.52;20.95;;;15.30;99.90;;;16.88;100.00;100809.47;6163899;23;20016;-90
2021/08/30 02:45:11;;;;;;;36.05;21.83;;;15.40;99.90;;;16.85;100.00;100798.97;6138591;23;20009;-91
2021/08/30 02:47:39;;;;;;;32.80;20.45;;;15.30;99.90;;;16.83;100.00;100805.00;6164887;23;20013;-92
2021/08/30 02:50:09;;;;;;;38.17;22.05;;;15.30;99.90;;;16.84;100.00;100803.00;6163590;23;20002;-88
2021/08/30 02:52:38;;;;;;;34.75;23.67;;;15.30;99.90;;;16.83;100.00;100809.81;6135454;23;20050;-90
2021/08/30 02:55:07;;;;;;;33.28;21.65;;;15.30;99.90;;;16.83;100.00;100804.19;6160993;23;20028;-90
2021/08/30 02:57:36;;;;;;;27.25;19.45;;;15.30;99.90;;;16.81;100.00;100804.59;6136594;23;20411;-88
2021/08/30 03:00:09;;;;;;;36.55;21.60;;;15.30;99.90;;;16.81;100.00;100809.44;6161779;23;20017;-90
2021/08/30 03:02:37;;;;;;;32.72;21.20;;;15.30;99.90;;;16.80;100.00;100805.78;6136876;23;20016;-88
2021/08/30 03:05:05;;;;;;;27.85;20.00;;;15.30;99.90;;;16.79;100.00;100807.00;6140028;23;20045;-87
2021/08/30 03:07:32;;;;;;;30.83;20.83;;;15.20;99.90;;;16.76;100.00;100801.38;6154659;23;20009;-88
2021/08/30 03:09:59;;;;;;;30.70;20.85;;;15.30;99.90;;;16.74;100.00;100795.28;6144352;23;20006;-89
2021/08/30 03:12:31;;;;;;;27.42;19.67;;;15.20;99.90;;;16.74;100.00;100798.09;6134076;23;20019;-87
2021/08/30 03:15:07;;;;;;;30.13;20.83;;;15.30;99.90;;;16.76;100.00;100796.50;6136088;23;20069;-88
2021/08/30 03:17:36;;;;;;;28.35;19.30;;;15.20;99.90;;;16.73;100.00;100797.31;6160208;23;20164;-88
2021/08/30 03:20:06;;;;;;;29.50;20.10;;;15.20;99.90;;;16.71;100.00;100805.34;6161076;23;20013;-89
2021/08/30 03:22:35;;;;;;;28.60;18.23;;;15.20;99.90;;;16.72;100.00;100798.53;6158994;23;20036;-90
2021/08/30 03:25:05;;;;;;;34.38;21.05;;;15.20;99.90;;;16.72;100.00;100798.53;6135158;23;20009;-89
2021/08/30 03:27:32;;;;;;;29.70;20.50;;;15.20;99.90;;;16.72;100.00;100801.34;6161151;23;20032;-90
2021/08/30 03:29:59;;;;;;;33.53;19.90;;;15.20;99.90;;;16.72;100.00;100807.00;6135530;23;20008;-88
2021/08/30 03:32:26;;;;;;;32.15;21.05;;;15.20;99.90;;;16.71;100.00;100802.53;6134411;23;20010;-90
2021/08/30 03:34:53;;;;;;;32.05;19.70;;;15.20;99.90;;;16.71;100.00;100798.91;6133029;23;20005;-87
2021/08/30 03:37:20;;;;;;;31.77;20.23;;;15.20;99.90;;;16.70;100.00;100803.72;6135901;23;20009;-88
2021/08/30 03:39:48;;;;;;;35.58;22.10;;;15.20;99.90;;;16.70;100.00;100806.56;6135045;23;20432;-87
2021/08/30 03:42:15;;;;;;;31.15;20.73;;;15.20;99.90;;;16.66;100.00;100802.13;6134255;23;20014;-88
2021/08/30 03:44:41;;;;;;;26.35;19.20;;;15.20;99.90;;;16.67;100.00;100803.72;6134946;23;20014;-90
2021/08/30 03:47:08;;;;;;;27.45;19.73;;;15.20;99.90;;;16.68;100.00;100810.97;6135645;23;20407;-89
2021/08/30 03:49:37;;;;;;;26.90;19.77;;;15.10;99.90;;;16.66;100.00;100805.72;6159754;23;20005;-87
2021/08/30 03:52:08;;;;;;;34.10;19.65;;;15.20;99.90;;;16.67;100.00;100798.06;6162608;23;20431;-88
2021/08/30 03:54:34;;;;;;;30.90;20.25;;;15.10;99.90;;;16.67;100.00;100809.34;6152291;23;20013;-88
2021/08/30 03:57:01;;;;;;;31.13;19.67;;;15.20;99.90;;;16.65;100.00;100804.13;6143611;23;20404;-87
2021/08/30 03:59:37;;;;;;;32.88;19.90;;;15.10;99.90;;;16.67;100.00;100800.88;6158134;23;20020;-88
2021/08/30 04:02:07;;;;;;;27.83;18.40;;;15.10;99.90;;;16.64;100.00;100804.50;6132603;23;20096;-91
2021/08/30 04:04:35;;;;;;;26.75;18.05;;;15.10;99.90;;;16.64;100.00;100801.69;6157763;23;20019;-90
2021/08/30 04:07:03;;;;;;;33.80;21.77;;;15.10;99.90;;;16.62;100.00;100796.47;6133019;23;20033;-90
2021/08/30 04:09:29;;;;;;;34.42;21.65;;;15.10;99.90;;;16.63;100.00;100805.72;6132720;23;20009;-91
2021/08/30 04:11:56;;;;;;;34.05;20.48;;;15.10;99.90;;;16.61;100.00;100802.47;6133574;23;20009;-89
2021/08/30 04:14:25;;;;;;;33.67;20.27;;;15.10;99.90;;;16.60;100.00;100803.69;6132740;23;20436;-90
2021/08/30 04:16:51;;;;;;;35.28;21.83;;;15.10;99.90;;;16.59;100.00;100807.72;6132851;23;20479;-90
2021/08/30 04:19:19;;;;;;;33.60;22.52;;;15.10;99.90;;;16.61;100.00;100806.13;6157623;23;20412;-90
2021/08/30 04:21:45;;;;;;;31.00;20.83;;;15.10;99.90;;;16.60;100.00;100792.44;6133442;23;20017;-89
2021/08/30 04:24:11;;;;;;;30.83;19.75;;;15.10;99.90;;;16.60;100.00;100804.50;6133147;23;20033;-91
2021/08/30 04:26:38;;;;;;;34.15;20.92;;;15.10;99.90;;;16.59;100.00;100800.06;6133919;23;20116;-92
2021/08/30 04:29:04;;;;;;;30.35;21.35;;;15.10;99.90;;;16.60;100.00;100800.88;6135059;23;20020;-91
2021/08/30 04:31:31;;;;;;;30.58;19.50;;;15.10;99.90;;;16.57;100.00;100799.63;6136249;23;20009;-90
2021/08/30 04:33:58;;;;;;;36.58;21.80;;;15.00;99.90;;;16.59;100.00;100802.06;6136408;23;20036;-90
2021/08/30 04:36:25;;;;;;;33.28;20.85;;;15.10;99.90;;;16.56;100.00;100806.50;6138572;23;20014;-90
2021/08/30 04:38:52;;;;;;;35.50;20.80;;;15.10;99.90;;;16.57;100.00;100808.09;6137545;23;20013;-90
2021/08/30 04:41:18;;;;;;;34.90;21.05;;;15.10;99.90;;;16.58;100.00;100812.53;6138804;23;20016;-91
2021/08/30 04:43:46;;;;;;;29.50;19.73;;;15.10;99.90;;;16.59;100.00;100807.72;6137722;23;20006;-92
2021/08/30 04:46:13;;;;;;;29.23;18.85;;;15.10;99.90;;;16.59;100.00;100804.91;6164803;23;20026;-91
2021/08/30 04:48:39;;;;;;;35.38;21.90;;;15.10;99.90;;;16.58;100.00;100809.72;6142666;23;20016;-89
2021/08/30 04:51:05;;;;;;;47.70;24.58;;;15.10;99.90;;;16.58;100.00;100809.72;6168113;23;20005;-90
2021/08/30 04:53:31;;;;;;;40.13;22.02;;;15.10;99.90;;;16.61;100.00;100814.56;6142740;23;20009;-92
2021/08/30 04:55:56;;;;;;;45.03;22.70;;;15.10;99.90;;;16.64;100.00;100821.44;6141981;23;20020;-90
2021/08/30 04:58:22;;;;;;;51.17;25.10;;;15.10;99.90;;;16.66;100.00;100830.31;6140426;23;20005;-92
2021/08/30 05:00:48;;;;;;;42.10;23.48;;;15.10;99.90;;;16.67;100.00;100817.81;6139068;23;20009;-90
2021/08/30 05:03:15;;;;;;;43.97;21.98;;;15.10;99.90;;;16.70;100.00;100823.47;6138057;23;20009;-89
2021/08/30 05:05:41;;;;;;;46.60;26.15;;;15.20;99.90;;;16.71;100.00;100819.47;6162911;23;20005;-89
2021/08/30 05:08:07;;;;;;;45.95;25.08;;;15.20;99.90;;;16.76;100.00;100821.09;6138354;23;20009;-92
2021/08/30 05:10:33;;;;;;;44.72;24.05;;;15.20;99.90;;;16.79;100.00;100823.13;6140444;23;20006;-90
2021/08/30 05:12:58;;;;;;;36.55;21.98;;;15.20;99.90;;;16.78;100.00;100819.50;6140237;23;20012;-91
2021/08/30 05:15:24;;;;;;;39.75;24.45;;;15.20;99.90;;;16.81;100.00;100829.19;6139724;23;20052;-90
2021/08/30 05:17:50;;;;;;;43.95;23.65;;;15.30;99.90;;;16.81;100.00;100826.34;6138910;23;20009;-90
2021/08/30 05:20:16;;;;;;;41.78;23.10;;;15.20;99.90;;;16.81;100.00;100830.00;6167215;23;20016;-90
2021/08/30 05:22:42;;;;;;;47.40;24.60;;;15.30;99.90;;;16.86;100.00;100837.25;6135878;23;20022;-92
2021/08/30 05:25:09;;;;;;;46.47;24.60;;;15.30;99.90;;;16.87;100.00;100833.22;6135631;23;20041;-92
2021/08/30 05:27:35;;;;;;;40.70;22.80;;;15.30;99.90;;;16.89;100.00;100836.44;6110995;23;20013;-92
2021/08/30 05:30:04;;;;;;;48.90;24.98;;;15.40;99.90;;;16.90;100.00;100840.09;6135653;23;20053;-90
2021/08/30 05:32:31;;;;;;;46.70;24.90;;;15.30;99.90;;;16.94;100.00;100844.56;6139142;23;20005;-87
2021/08/30 05:34:56;;;;;;;37.42;23.05;;;15.40;99.90;;;16.96;100.00;100841.31;6147324;23;20020;-91
2021/08/30 05:37:24;;;;;;;39.45;25.98;;;15.40;99.90;;;16.93;100.00;100847.75;6146068;23;20009;-92
2021/08/30 05:39:50;;;;;;;40.35;24.70;;;15.40;99.90;;;16.96;100.00;100841.31;6145893;23;20010;-88
2021/08/30 05:42:16;;;;;;;38.25;24.80;;;15.40;99.90;;;16.94;100.00;100847.38;6142409;23;20025;-89
2021/08/30 05:44:42;;;;;;;38.67;24.90;;;15.40;99.90;;;16.99;100.00;100846.16;6130869;23;20017;-91
2021/08/30 05:47:09;;;;;;;33.30;21.38;;;15.40;99.90;;;17.01;100.00;100855.88;6106827;23;20013;-90
2021/08/30 05:49:35;;;;;;;35.45;22.73;;;15.40;99.90;;;17.01;100.00;100846.59;6132667;23;20009;-91
2021/08/30 05:52:02;;;;;;;33.40;20.23;;;15.50;99.90;;;17.01;100.00;100847.41;6132650;23;20110;-88
2021/08/30 05:54:28;;;;;;;34.63;22.77;;;15.40;99.90;;;17.00;100.00;100857.06;6135380;23;20467;-89
2021/08/30 05:56:53;;;;;;;36.08;24.95;;;15.50;99.90;;;17.01;100.00;100855.06;6134069;23;20093;-89
2021/08/30 05:59:19;;;;;;;36.38;24.17;;;15.50;99.90;;;16.97;100.00;100848.59;6132639;23;20444;-87
2021/08/30 06:01:46;;;;;;;38.03;25.10;;;15.40;99.90;;;17.01;100.00;100855.88;6110080;23;20009;-91
2021/08/30 06:04:12;;;;;;;38.75;25.38;;;15.50;99.90;;;17.01;100.00;100850.22;6115145;23;20010;-89
2021/08/30 06:06:41;;;;;;;41.17;26.05;;;15.50;99.90;;;17.02;100.00;100849.00;6111867;23;20065;-88
2021/08/30 06:09:17;;;;;;;;;;;;;;;;;;;;;
2021/08/30 06:11:56;;;;;;;;;;;;;;;;;;;;;
2021/08/30 06:14:25;;;;;;;37.28;23.45;;;15.60;99.90;;;17.10;100.00;100853.47;6133629;23;20695;-89
2021/08/30 06:16:53;;;;;;;37.03;23.58;;;15.50;99.90;;;17.11;100.00;100848.66;6131411;23;20006;-90
2021/08/30 06:19:19;;;;;;;39.22;25.20;;;15.60;99.90;;;17.15;100.00;100857.91;6134737;23;20006;-89
2021/08/30 11:57:37;;;;;;;10.93;8.68;;;20.40;99.90;;;22.00;72.59;100882.22;6159481;23;20051;-88
2021/08/30 12:01:29;;;;;;;10.45;8.55;;;20.30;99.90;;;22.21;73.47;100879.06;6136012;23;20101;-86
2021/08/30 12:05:24;;;;;;;13.25;8.63;;;20.30;99.90;;;22.53;70.96;100876.44;6095776;23;20062;-87
2021/08/30 12:09:11;;;;;;;10.13;7.90;;;20.60;99.90;;;23.39;64.42;100879.22;6067488;23;20468;-88
2021/08/30 12:17:49;;;;;;;10.98;8.02;;;21.90;99.90;;;24.02;62.72;100884.72;5982892;23;20083;-91
2021/08/30 12:26:36;;;;;;;11.68;8.30;;;22.20;99.90;;;25.03;61.98;100879.66;6131623;23;20018;-86
2021/08/30 12:29:22;;;;;;;;;;;;;;;;;;;;;
2021/08/30 12:32:04;;;;;;;;;;;;;;;;;;;;;
2021/08/30 12:34:35;;;;;;;11.80;7.40;;;22.50;99.90;;;24.01;60.65;100875.38;6135794;23;20026;-86
2021/08/30 12:37:16;;;;;;;;;;;;;;;;;;;;;
2021/08/30 12:39:54;;;;;;;10.23;7.53;;;22.00;99.90;;;23.47;63.57;100889.22;6143748;23;20014;-88
2021/08/30 12:42:37;;;;;;;10.10;7.45;;;21.70;99.90;;;23.33;65.46;100880.16;6106195;23;20061;-88
2021/08/30 12:45:11;;;;;;;10.18;7.05;;;21.50;99.90;;;23.11;65.99;100879.81;6130728;23;20018;-89
2021/08/30 12:47:48;;;;;;;;;;;;;;;;;;;;;
2021/08/30 12:50:30;;;;;;;;;;;;;;;;;;;;;
2021/08/30 12:53:09;;;;;;;;;;;;;;;;;;;;;
2021/08/30 12:55:49;;;;;;;11.93;7.75;;;20.90;99.90;;;22.58;66.54;100881.63;6134890;23;20036;-88
2021/08/30 12:58:25;;;;;;;8.85;7.18;;;20.80;99.90;;;22.54;67.16;100886.56;6134082;23;20009;-90
2021/08/30 13:00:57;;;;;;;11.48;7.80;;;20.70;99.90;;;22.48;67.54;100878.97;6109163;23;20113;-90
2021/08/30 13:03:39;;;;;;;;;;;;;;;;;;;;;
2021/08/30 13:06:07;;;;;;;10.93;8.27;;;20.70;99.90;;;22.34;69.62;100879.25;6137224;23;20384;-84
2021/08/30 13:08:40;;;;;;;9.10;7.32;;;20.60;99.90;;;22.29;69.32;100874.03;6110623;23;20364;-90
2021/08/30 13:11:16;;;;;;;;;;;;;;;;;;;;;
2021/08/30 13:13:47;;;;;;;13.18;7.82;;;20.60;99.90;;;22.47;69.34;100883.06;6135684;23;20026;-90
2021/08/30 13:16:15;;;;;;;9.13;7.53;;;20.60;99.90;;;22.56;69.08;100874.78;6110974;23;20017;-87
2021/08/30 13:18:43;;;;;;;10.55;7.10;;;20.70;99.90;;;22.68;69.80;100870.50;6111657;23;20029;-88
2021/08/30 13:21:09;;;;;;;9.95;7.35;;;20.80;99.90;;;22.72;69.82;100868.41;6113603;23;20010;-87
2021/08/30 13:23:35;;;;;;;10.57;7.05;;;20.80;99.90;;;22.66;66.84;100875.84;6147667;23;20317;-85
2021/08/30 13:26:06;;;;;;;9.02;7.05;;;20.90;99.90;;;22.64;67.66;100876.22;6135761;23;20084;-88
2021/08/30 13:28:42;;;;;;;;;;;;;;;;;;;;;
2021/08/30 13:31:08;;;;;;;10.25;6.65;;;20.80;99.90;;;22.86;67.20;100871.75;6131873;23;20058;-86
2021/08/30 13:33:34;;;;;;;9.45;7.10;;;20.90;99.90;;;22.77;65.84;100865.84;6136590;23;20042;-84
2021/08/30 13:36:03;;;;;;;9.68;7.57;;;20.90;99.90;;;22.82;66.33;100882.44;6121618;23;20006;-85
2021/08/30 13:38:31;;;;;;;10.57;7.78;;;20.90;99.90;;;22.71;66.10;100863.94;6122344;23;20002;-84
2021/08/30 13:41:04;;;;;;;12.30;7.45;;;20.90;99.90;;;22.71;66.13;100869.63;6146940;23;20062;-85
2021/08/30 13:43:37;;;;;;;11.13;7.38;;;20.90;99.90;;;22.64;66.03;100875.44;6107710;23;20002;-87
2021/08/30 13:46:49;;;;;;;;;;;;;;;;;;;;;
2021/08/30 13:49:19;;;;;;;9.88;7.15;;;20.80;99.90;;;22.71;67.55;100878.97;6013792;23;20083;-89
2021/08/30 13:51:56;;;;;;;;;;;;;;;;;;;;;
2021/08/30 13:54:26;;;;;;;11.82;7.10;;;20.90;99.90;;;23.18;67.84;100871.13;6131981;23;20030;-87
2021/08/30 13:57:04;;;;;;;9.85;6.85;;;21.10;99.90;;;23.27;65.94;100871.34;6131905;23;20431;-87
2021/08/30 13:59:35;;;;;;;12.18;7.22;;;21.30;99.90;;;23.33;66.36;100875.28;6106164;23;20014;-89
2021/08/30 14:02:11;;;;;;;9.48;6.78;;;21.30;99.90;;;23.35;66.61;100863.44;6105118;23;20010;-87
2021/08/30 14:04:37;;;;;;;9.77;7.13;;;21.40;99.90;;;23.30;65.61;100872.50;6105354;23;20013;-87
2021/08/30 14:07:06;;;;;;;9.10;7.25;;;21.30;99.90;;;23.35;65.92;100867.09;6105574;23;20345;-90
2021/08/30 14:09:33;;;;;;;9.57;6.93;;;21.30;99.90;;;23.33;65.95;100868.78;6104779;23;20002;-88
2021/08/30 14:12:02;;;;;;;9.45;6.70;;;21.30;99.90;;;23.36;65.26;100868.69;6104800;23;20010;-87
2021/08/30 14:14:30;;;;;;;9.02;6.75;;;21.30;99.90;;;23.35;65.98;100863.44;6132193;23;20006;-87
2021/08/30 14:16:57;;;;;;;12.55;7.45;;;21.40;99.90;;;23.42;65.43;100863.31;6134348;23;20009;-87
2021/08/30 14:19:23;;;;;;;9.93;6.78;;;21.50;99.90;;;23.53;65.46;100863.88;6110650;23;20009;-87
2021/08/30 14:21:49;;;;;;;10.73;6.40;;;21.50;99.90;;;23.68;64.43;100864.34;6107979;23;20017;-89
2021/08/30 14:24:15;;;;;;;8.95;6.47;;;21.60;99.90;;;23.51;64.05;100858.59;6135721;23;20022;-90
2021/08/30 14:26:42;;;;;;;9.32;6.75;;;21.60;99.90;;;23.38;63.88;100865.41;6109491;23;20309;-87
2021/08/30 14:29:08;;;;;;;10.32;6.40;;;21.50;99.90;;;23.33;64.52;100865.94;6109429;23;20026;-87
2021/08/30 14:31:36;;;;;;;8.48;6.28;;;21.50;99.90;;;23.18;63.88;100865.44;6108952;23;20006;-87
2021/08/30 14:34:02;;;;;;;7.85;5.90;;;21.40;99.90;;;22.92;65.28;100866.38;6134267;23;20350;-87
2021/08/30 14:36:31;;;;;;;9.98;6.47;;;21.20;99.90;;;22.62;65.57;100863.69;6139336;23;20021;-87
2021/08/30 14:38:57;;;;;;;9.07;6.60;;;21.00;99.90;;;22.34;66.20;100868.66;6109175;23;20036;-86
2021/08/30 14:41:23;;;;;;;11.15;7.50;;;20.70;99.90;;;22.15;67.62;100858.03;6110174;23;20061;-86
2021/08/30 14:43:52;;;;;;;8.32;6.30;;;20.50;99.90;;;22.15;67.76;100868.59;6110781;23;20010;-88
2021/08/30 14:46:20;;;;;;;10.23;7.53;;;20.50;99.90;;;22.12;68.31;100875.16;6111504;23;20006;-88
2021/08/30 14:48:47;;;;;;;10.38;6.70;;;20.40;99.90;;;22.27;69.41;100873.66;6111141;23;20018;-85
2021/08/30 14:51:17;;;;;;;10.95;6.90;;;20.50;99.90;;;22.45;69.19;100877.00;6110890;23;20477;-89
2021/08/30 14:53:44;;;;;;;8.43;6.25;;;20.70;99.90;;;22.69;67.84;100874.97;6120266;23;20005;-87
2021/08/30 14:56:10;;;;;;;12.98;6.78;;;20.80;99.90;;;22.81;67.39;100872.28;6126396;23;20006;-88
2021/08/30 14:58:36;;;;;;;9.68;6.13;;;21.00;99.90;;;22.85;66.75;100860.81;6133289;23;20447;-87
2021/08/30 15:01:02;;;;;;;6.95;6.03;;;21.10;99.90;;;23.00;66.95;100877.19;6132015;23;20006;-88
2021/08/30 15:03:28;;;;;;;8.18;5.70;;;21.20;99.90;;;22.97;62.98;100860.97;6106835;23;20010;-87
2021/08/30 15:05:55;;;;;;;8.90;6.63;;;21.30;99.90;;;23.03;63.17;100862.06;6107252;23;20408;-89
2021/08/30 15:08:26;;;;;;;8.23;6.03;;;21.30;99.90;;;22.97;63.92;100860.16;6109017;23;20041;-92
2021/08/30 15:10:52;;;;;;;13.20;5.93;;;21.30;99.90;;;22.87;64.27;100864.84;6108588;23;20083;-89
2021/08/30 15:13:19;;;;;;;10.13;6.10;;;21.30;99.90;;;22.87;63.28;100864.03;6108128;23;20094;-89
2021/08/30 15:15:45;;;;;;;9.38;5.82;;;21.20;99.90;;;22.86;63.29;100859.59;6107572;23;20010;-89
2021/08/30 15:18:13;;;;;;;10.63;6.03;;;21.20;99.90;;;22.79;63.48;100860.53;6134558;23;20006;-88
2021/08/30 15:20:41;;;;;;;7.68;5.90;;;21.20;99.90;;;22.71;63.17;100863.94;6109525;23;20021;-89
2021/08/30 15:23:07;;;;;;;6.95;4.95;;;21.10;99.90;;;22.73;63.75;100862.28;6136099;23;20014;-90
2021/08/30 15:25:35;;;;;;;8.13;5.95;;;21.10;99.90;;;22.77;64.13;100862.19;6129629;23;20030;-91
2021/08/30 15:28:03;;;;;;;8.95;5.57;;;21.10;99.90;;;22.65;63.33;100871.34;6131408;23;20011;-86
2021/08/30 15:30:29;;;;;;;12.52;5.55;;;21.00;99.90;;;22.59;63.10;100866.16;6108631;23;20013;-89
2021/08/30 15:32:56;;;;;;;9.70;5.97;;;20.90;99.90;;;22.51;62.92;100870.38;6107215;23;20012;-90
2021/08/30 15:35:23;;;;;;;10.50;5.10;;;20.90;99.90;;;22.44;63.28;100861.94;6133544;23;20015;-89
2021/08/30 15:37:49;;;;;;;10.50;5.65;;;20.80;99.90;;;22.50;63.36;100862.28;6112199;23;20011;-90
2021/08/30 15:40:16;;;;;;;8.50;5.90;;;20.80;99.90;;;22.44;63.82;100861.94;6103423;23;20017;-90
2021/08/30 15:42:42;;;;;;;9.55;5.75;;;20.70;99.90;;;22.45;64.29;100866.41;6103941;23;20031;-92
2021/08/30 15:45:12;;;;;;;10.45;6.30;;;20.70;99.90;;;22.44;64.49;100869.72;6127340;23;20452;-91
2021/08/30 15:47:38;;;;;;;9.60;6.53;;;20.70;99.90;;;22.47;65.71;100869.66;6102399;23;20038;-91
2021/08/30 15:50:08;;;;;;;8.00;5.65;;;20.70;99.90;;;22.58;64.50;100870.25;6102909;23;20010;-90
2021/08/30 15:52:38;;;;;;;7.65;5.93;;;20.80;99.90;;;22.82;63.22;100870.25;6126434;23;20007;-87
2021/08/30 15:55:10;;;;;;;11.95;5.90;;;21.00;99.90;;;23.07;63.36;100879.09;6124512;23;20330;-89
2021/08/30 15:57:37;;;;;;;8.52;5.63;;;21.20;99.90;;;23.19;62.95;100874.75;6101455;23;20503;-91
2021/08/30 16:00:07;;;;;;;8.05;5.88;;;21.30;99.90;;;23.27;62.97;100867.69;6104744;23;20006;-87
2021/08/30 16:02:34;;;;;;;8.15;5.57;;;21.40;99.90;;;23.26;63.10;100871.78;6126045;23;20102;-88
2021/08/30 16:05:00;;;;;;;5.97;5.30;;;21.40;99.90;;;23.33;63.03;100874.47;6126011;23;20514;-91
2021/08/30 16:07:26;;;;;;;9.52;5.90;;;21.50;99.90;;;23.38;63.46;100874.75;6126624;23;20002;-86
2021/08/30 16:09:52;;;;;;;7.90;6.13;;;21.50;99.90;;;23.40;63.10;100875.16;6101961;23;20228;-89
2021/08/30 16:12:17;;;;;;;8.60;6.30;;;21.50;99.90;;;23.25;62.90;100870.16;6104385;23;20003;-90
2021/08/30 16:14:43;;;;;;;8.13;5.75;;;21.50;99.90;;;23.07;62.99;100881.94;6101128;23;20006;-90
2021/08/30 16:17:09;;;;;;;7.68;5.82;;;21.30;99.90;;;22.87;63.72;100881.91;6122989;23;20091;-90
2021/08/30 16:19:37;;;;;;;6.70;5.25;;;21.20;99.90;;;22.77;63.76;100876.44;6123113;23;20006;-90
2021/08/30 16:22:03;;;;;;;7.43;5.82;;;21.10;99.90;;;22.70;64.68;100885.91;6100414;23;20085;-89
2021/08/30 16:24:29;;;;;;;10.05;6.15;;;21.00;99.90;;;22.64;64.40;100881.94;6130627;23;20013;-88